St. Elmo — WDG2405 — position and weather

sailwx.info

Track history (hours):
 
Tides and Currents Weather Stations Pressure Air Temp Water Temp Dewpoint Dewpoint Depression Visibility Wind Speed Wind Dir Waves Ship Positions

St. Elmo

Owner: Marquette Transportation Company Gulf-Inland, LLC, Jefferson, LA. More information available from US FCC via Universal Licensing System and Coast Guard Vessel Documentation Center.

Last reported at 2014-Nov-26 13:31 UTC. Time now 2014-Nov-27 06:46 UTC.
Position N 29°25' W 094°44'.

MMSI: 367515330.

Date/timePositionNaut miles runAvg speedWind from/ knotsBaromVisibWave heightAir tempDewpointWater temp
2014-Nov-26 13:31N 29°25' W 094°44'9 0.8
2014-Nov-26 02:07N 29°30' W 094°52'3 5.9
2014-Nov-26 01:32N 29°33' W 094°54'6 6.3
2014-Nov-26 00:33N 29°38' W 094°58'6 6.3
2014-Nov-25 23:33N 29°43' W 095°01'4 3.2
2014-Nov-25 22:14N 29°45' W 095°06'0 0.0
2014-Nov-25 17:30N 29°45' W 095°06'1 0.0
2014-Nov-24 18:20N 29°46' W 095°05'1 0.6
2014-Nov-24 17:16N 29°46' W 095°06'0 0.0
2014-Nov-24 16:33N 29°46' W 095°06'0 0.0
2014-Nov-24 15:29N 29°46' W 095°06'0 0.0
2014-Nov-24 14:31N 29°46' W 095°06'1 0.0
2014-Nov-22 13:25N 29°44' W 095°07'2 0.1
2014-Nov-21 22:27N 29°46' W 095°06'0 0.0
2014-Nov-20 21:13N 29°46' W 095°06'0 0.0
2014-Nov-20 19:30N 29°46' W 095°06'1 0.4
2014-Nov-20 18:08N 29°45' W 095°06'0 0.4
2014-Nov-20 17:09N 29°46' W 095°06'1 0.3
2014-Nov-20 14:32N 29°46' W 095°06'0 0.0
2014-Nov-20 13:33N 29°46' W 095°06'0 0.0
2014-Nov-20 02:30N 29°46' W 095°06'1 0.7
2014-Nov-20 01:33N 29°46' W 095°06'1 0.2
2014-Nov-19 21:13N 29°46' W 095°05'4 5.8
2014-Nov-19 20:33N 29°44' W 095°09'4 1.8
2014-Nov-19 18:29N 29°44' W 095°14'4 4.1
2014-Nov-19 17:32N 29°44' W 095°09'3 3.0
2014-Nov-19 16:33N 29°46' W 095°06'1 0.1
2014-Nov-19 05:27N 29°46' W 095°06'0 0.0
2014-Nov-19 03:09N 29°46' W 095°06'0 0.0
2014-Nov-19 02:33N 29°46' W 095°06'0 0.0
2014-Nov-18 23:32N 29°46' W 095°06'1 0.7
2014-Nov-18 22:33N 29°46' W 095°06'0 0.0
2014-Nov-18 21:33N 29°46' W 095°06'0 0.0
2014-Nov-18 20:31N 29°46' W 095°06'0 0.0
2014-Nov-18 19:32N 29°46' W 095°06'0 0.3
2014-Nov-18 18:31N 29°45' W 095°06'1 0.8
2014-Nov-18 17:26N 29°46' W 095°05'3 3.7
2014-Nov-18 16:32N 29°44' W 095°02'3 3.4
2014-Nov-18 15:33N 29°41' W 094°59'4 4.2
2014-Nov-18 14:33N 29°37' W 094°58'3 3.3
2014-Nov-18 13:33N 29°37' W 095°01'0 0.0
2014-Nov-18 12:33N 29°37' W 095°01'0 0.0
2014-Nov-18 11:33N 29°37' W 095°01'0 0.0
2014-Nov-18 10:33N 29°37' W 095°01'0 0.0
2014-Nov-18 09:33N 29°37' W 095°01'0 0.0
2014-Nov-18 08:33N 29°37' W 095°01'0 0.0
2014-Nov-18 07:33N 29°37' W 095°01'0 0.0
2014-Nov-18 06:33N 29°37' W 095°01'0 0.0
2014-Nov-18 05:33N 29°37' W 095°01'0 0.0
2014-Nov-18 04:33N 29°37' W 095°01'0 0.0
2014-Nov-18 03:33N 29°37' W 095°01'0 0.0
2014-Nov-18 02:33N 29°37' W 095°01'0 0.0
2014-Nov-18 01:32N 29°37' W 095°01'0 0.0
2014-Nov-18 00:33N 29°37' W 095°01'0 0.0
2014-Nov-17 23:33N 29°37' W 095°01'0 0.0
2014-Nov-17 22:33N 29°37' W 095°01'0 0.0
2014-Nov-17 21:33N 29°37' W 095°01'0 0.0
2014-Nov-17 20:33N 29°37' W 095°01'0 0.0
2014-Nov-17 19:33N 29°37' W 095°01'0 0.0
2014-Nov-17 18:33N 29°37' W 095°01'0 0.0
2014-Nov-17 17:33N 29°37' W 095°01'0 0.0
2014-Nov-17 16:33N 29°37' W 095°01'0 0.0
2014-Nov-17 15:33N 29°37' W 095°01'0 0.0
2014-Nov-17 14:33N 29°37' W 095°01'0 0.0
2014-Nov-17 13:33N 29°37' W 095°01'0 0.0
2014-Nov-17 12:33N 29°37' W 095°01'0 0.0
2014-Nov-17 11:33N 29°37' W 095°01'0 0.0
2014-Nov-17 10:33N 29°37' W 095°01'0 0.0
2014-Nov-17 09:33N 29°37' W 095°01'0 0.2
2014-Nov-17 08:33N 29°37' W 095°01'0 0.1
2014-Nov-17 07:33N 29°37' W 095°02'0 0.0
2014-Nov-17 06:33N 29°37' W 095°02'0 0.0
2014-Nov-17 05:33N 29°37' W 095°02'0 0.0
2014-Nov-17 04:33N 29°37' W 095°02'0 0.0
2014-Nov-17 03:33N 29°37' W 095°02'0 0.0
2014-Nov-17 02:33N 29°37' W 095°02'0 0.0
2014-Nov-17 01:33N 29°37' W 095°02'0 0.0
2014-Nov-17 00:33N 29°37' W 095°02'0 0.0
2014-Nov-16 23:33N 29°37' W 095°02'0 0.0
2014-Nov-16 22:33N 29°37' W 095°02'0 0.0
2014-Nov-16 21:33N 29°37' W 095°01'0 0.3
2014-Nov-16 20:33N 29°37' W 095°01'0 0.4
2014-Nov-16 19:33N 29°37' W 095°02'0 0.0
2014-Nov-16 18:33N 29°37' W 095°02'0 0.0
2014-Nov-16 17:33N 29°37' W 095°02'0 0.0
2014-Nov-16 16:33N 29°37' W 095°02'0 0.0
2014-Nov-16 15:33N 29°37' W 095°02'0 0.0
2014-Nov-16 14:33N 29°37' W 095°02'0 0.0
2014-Nov-16 13:33N 29°37' W 095°02'  
Track history (hours):
 
Tides and Currents Weather Stations Pressure Air Temp Water Temp Dewpoint Dewpoint Depression Visibility Wind Speed Wind Dir Waves Ship Positions

St. Elmo

Owner: Marquette Transportation Company Gulf-Inland, LLC, Jefferson, LA. More information available from US FCC via Universal Licensing System and Coast Guard Vessel Documentation Center.

Last reported at 2014-Nov-26 13:31 UTC. Time now 2014-Nov-27 06:46 UTC.
Position N 29°25' W 094°44'.

MMSI: 367515330.

Date/timePositionNaut miles runAvg speedWind from/ knotsBaromVisibWave heightAir tempDewpointWater temp
2014-Nov-26 13:31N 29°25' W 094°44'9 0.8
2014-Nov-26 02:07N 29°30' W 094°52'3 5.9
2014-Nov-26 01:32N 29°33' W 094°54'6 6.3
2014-Nov-26 00:33N 29°38' W 094°58'6 6.3
2014-Nov-25 23:33N 29°43' W 095°01'4 3.2
2014-Nov-25 22:14N 29°45' W 095°06'0 0.0
2014-Nov-25 17:30N 29°45' W 095°06'1 0.0
2014-Nov-24 18:20N 29°46' W 095°05'1 0.6
2014-Nov-24 17:16N 29°46' W 095°06'0 0.0
2014-Nov-24 16:33N 29°46' W 095°06'0 0.0
2014-Nov-24 15:29N 29°46' W 095°06'0 0.0
2014-Nov-24 14:31N 29°46' W 095°06'1 0.0
2014-Nov-22 13:25N 29°44' W 095°07'2 0.1
2014-Nov-21 22:27N 29°46' W 095°06'0 0.0
2014-Nov-20 21:13N 29°46' W 095°06'0 0.0
2014-Nov-20 19:30N 29°46' W 095°06'1 0.4
2014-Nov-20 18:08N 29°45' W 095°06'0 0.4
2014-Nov-20 17:09N 29°46' W 095°06'1 0.3
2014-Nov-20 14:32N 29°46' W 095°06'0 0.0
2014-Nov-20 13:33N 29°46' W 095°06'0 0.0
2014-Nov-20 02:30N 29°46' W 095°06'1 0.7
2014-Nov-20 01:33N 29°46' W 095°06'1 0.2
2014-Nov-19 21:13N 29°46' W 095°05'4 5.8
2014-Nov-19 20:33N 29°44' W 095°09'4 1.8
2014-Nov-19 18:29N 29°44' W 095°14'4 4.1
2014-Nov-19 17:32N 29°44' W 095°09'3 3.0
2014-Nov-19 16:33N 29°46' W 095°06'1 0.1
2014-Nov-19 05:27N 29°46' W 095°06'0 0.0
2014-Nov-19 03:09N 29°46' W 095°06'0 0.0
2014-Nov-19 02:33N 29°46' W 095°06'0 0.0
2014-Nov-18 23:32N 29°46' W 095°06'1 0.7
2014-Nov-18 22:33N 29°46' W 095°06'0 0.0
2014-Nov-18 21:33N 29°46' W 095°06'0 0.0
2014-Nov-18 20:31N 29°46' W 095°06'0 0.0
2014-Nov-18 19:32N 29°46' W 095°06'0 0.3
2014-Nov-18 18:31N 29°45' W 095°06'1 0.8
2014-Nov-18 17:26N 29°46' W 095°05'3 3.7
2014-Nov-18 16:32N 29°44' W 095°02'3 3.4
2014-Nov-18 15:33N 29°41' W 094°59'4 4.2
2014-Nov-18 14:33N 29°37' W 094°58'3 3.3
2014-Nov-18 13:33N 29°37' W 095°01'0 0.0
2014-Nov-18 12:33N 29°37' W 095°01'0 0.0
2014-Nov-18 11:33N 29°37' W 095°01'0 0.0
2014-Nov-18 10:33N 29°37' W 095°01'0 0.0
2014-Nov-18 09:33N 29°37' W 095°01'0 0.0
2014-Nov-18 08:33N 29°37' W 095°01'0 0.0
2014-Nov-18 07:33N 29°37' W 095°01'0 0.0
2014-Nov-18 06:33N 29°37' W 095°01'0 0.0
2014-Nov-18 05:33N 29°37' W 095°01'0 0.0
2014-Nov-18 04:33N 29°37' W 095°01'0 0.0
2014-Nov-18 03:33N 29°37' W 095°01'0 0.0
2014-Nov-18 02:33N 29°37' W 095°01'0 0.0
2014-Nov-18 01:32N 29°37' W 095°01'0 0.0
2014-Nov-18 00:33N 29°37' W 095°01'0 0.0
2014-Nov-17 23:33N 29°37' W 095°01'0 0.0
2014-Nov-17 22:33N 29°37' W 095°01'0 0.0
2014-Nov-17 21:33N 29°37' W 095°01'0 0.0
2014-Nov-17 20:33N 29°37' W 095°01'0 0.0
2014-Nov-17 19:33N 29°37' W 095°01'0 0.0
2014-Nov-17 18:33N 29°37' W 095°01'0 0.0
2014-Nov-17 17:33N 29°37' W 095°01'0 0.0
2014-Nov-17 16:33N 29°37' W 095°01'0 0.0
2014-Nov-17 15:33N 29°37' W 095°01'0 0.0
2014-Nov-17 14:33N 29°37' W 095°01'0 0.0
2014-Nov-17 13:33N 29°37' W 095°01'0 0.0
2014-Nov-17 12:33N 29°37' W 095°01'0 0.0
2014-Nov-17 11:33N 29°37' W 095°01'0 0.0
2014-Nov-17 10:33N 29°37' W 095°01'0 0.0
2014-Nov-17 09:33N 29°37' W 095°01'0 0.2
2014-Nov-17 08:33N 29°37' W 095°01'0 0.1
2014-Nov-17 07:33N 29°37' W 095°02'0 0.0
2014-Nov-17 06:33N 29°37' W 095°02'0 0.0
2014-Nov-17 05:33N 29°37' W 095°02'0 0.0
2014-Nov-17 04:33N 29°37' W 095°02'0 0.0
2014-Nov-17 03:33N 29°37' W 095°02'0 0.0
2014-Nov-17 02:33N 29°37' W 095°02'0 0.0
2014-Nov-17 01:33N 29°37' W 095°02'0 0.0
2014-Nov-17 00:33N 29°37' W 095°02'0 0.0
2014-Nov-16 23:33N 29°37' W 095°02'0 0.0
2014-Nov-16 22:33N 29°37' W 095°02'0 0.0
2014-Nov-16 21:33N 29°37' W 095°01'0 0.3
2014-Nov-16 20:33N 29°37' W 095°01'0 0.4
2014-Nov-16 19:33N 29°37' W 095°02'0 0.0
2014-Nov-16 18:33N 29°37' W 095°02'0 0.0
2014-Nov-16 17:33N 29°37' W 095°02'0 0.0
2014-Nov-16 16:33N 29°37' W 095°02'0 0.0
2014-Nov-16 15:33N 29°37' W 095°02'0 0.0
2014-Nov-16 14:33N 29°37' W 095°02'0 0.0
2014-Nov-16 13:33N 29°37' W 095°02'  

Dump ship's entire track history